Airfield :
LOGIN :

Register | Disclaimer

   EN    FR    IT 

 










Legend :    VFR   Marginal VFR   IFR   Intensive IFR   Very Intensive IFR
Visi :
Ceiling :
>= 8 km
>= 3000ft
5 to 8 km
1000 to 3000 ft
1500m to 5 km
500 to 1000 ft
800 to 1500m
200 to 500 ft
< 800m
< 200 ft
Symbols :   Thunderstorms  Fog  Heavy snow  Heavy precipitations  Wind > 20 kt
SIGMETs :     Misc.  Thunderstorms  Icing  Turbulence  Mountain Waves  Volcanic Ashes






- Airport Elevation : 1411 ft
- IATA code : SZG


LOWS - Salzburg

CURRENT METAR :
  • 230120Z AUTO 07004KT 9000 BKN006 M02/M03 Q1034

EXPIRED METARs :
  • 230050Z AUTO 11003KT 070V150 8000 FEW005 BKN006 M02/M03 Q1034
  • 230020Z AUTO 08003KT 040V130 8000 FEW005 BKN006 M02/M03 Q1035
  • 222350Z AUTO 15003KT 070V190 8000 FEW004 BKN006 M02/M03 Q1035
  • 222320Z AUTO 16003KT 120V200 6000 BKN005 M02/M03 Q1035
  • 222250Z AUTO 21003KT 170V300 7000 FEW005 BKN006 M02/M03 Q1035

TAF TAF LOWS
Valid from the 23 at 00:00 until the 24 at 00:00 UTC


222315Z 2300/2324 VRB03KT 7000 BKN006 TX03/2314Z TNM05/2323Z
TEMPO 2300/2310 4000 BR BKN004
BECMG 2310/2312 02005KT FEW005 BKN010
TEMPO 2310/2316 9999 SCT010
BECMG 2315/2317 VRB03KT BKN006
TEMPO 2317/2320 15008KT SCT008



MET'MAP, your aeronautical weather chart ! - Copyright ORBIFLY December 2007 - Disclaimer

ORBIFLY MET'MAP TEAM :

Programming & Development : Alexandra Zaïnal
Concept & original design : Baudouin d'Aumeries
Assistance for programming : Marc-Olivier Méhu
Technical & hardware support : Manuel Goepfert

Contact : metmap@orbifly.com




SOURCES & CREDITS :

   NOAA